Terminal Aerodrome Forecast
Issued by NWS Cleveland, OH

Home | Current Version | Previous Version | Graphics & Text | Print | Product List | Glossary Off
Versions: 1 2 3 4 5 6 7 8 9 10 11 12 13 14 15 16

000
FTUS41 KCLE 080523
TAFYNG
TAF
KYNG 080523Z 0806/0906 24010KT P6SM SCT025 BKN100
      TEMPO 0811/0815 BKN025
     FM081900 27015G25KT P6SM VCSH OVC035
     FM082200 26015G25KT 4SM -SHSN OVC025
     FM090000 26012G20KT 2SM -SHSN OVC015=

USA.gov is the U.S. government's official web portal to all federal, state and local government web resources and services.